INFORMAÇÕES METEOROLÓGICAS
METAR FOR ENKB
ADDS - METARS form results

(1149 UTC 18 June 2018)
Data provider http://aviationweather.gov/adds/metars/
 
METAR text: ENKB 181120Z 09004KT 9999 VCSH FEW027 BKN059 14/11 Q1001 RMK WIND 745FT 11006KT
Conditions at: ENKB (KRISTIANSUND/KVE, NO) observed 1120 UTC 18 June 2018
Temperature: 14.0°C (57°F)
Dewpoint: 11.0°C (52°F) [RH = 82%]
Pressure (altimeter): 29.56 inches Hg (1001.0 mb)
Winds: from the E (90 degrees) at 5 MPH (4 knots; 2.1 m/s)
Visibility: 6 or more miles (10+ km)
Ceiling: 5900 feet AGL
Clouds: few clouds at 2700 feet AGL
broken clouds at 5900 feet AGL
Weather: VCSH  (showers in vicinity)

METAR text: ENKB 181050Z 07004KT 9999 -RA FEW016 SCT043 14/11 Q1001 RMK WIND 745FT 11004KT
Conditions at: ENKB (KRISTIANSUND/KVE, NO) observed 1050 UTC 18 June 2018
Temperature: 14.0°C (57°F)
Dewpoint: 11.0°C (52°F) [RH = 82%]
Pressure (altimeter): 29.56 inches Hg (1001.0 mb)
Winds: from the ENE (70 degrees) at 5 MPH (4 knots; 2.1 m/s)
Visibility: 6 or more miles (10+ km)
Ceiling: at least 12,000 feet AGL
Clouds: few clouds at 1600 feet AGL
scattered clouds at 4300 feet AGL
Weather: -RA  (light rain)

Forecast for: ENKB (KRISTIANSUND/KVE, NO)
Text: TAF ENKB 181100Z 1812/1821 VRB07KT 9999 FEW030 BKN050
Forecast period: 1200 to 1500 UTC 18 June 2018
Forecast type: FROM: standard forecast or significant change
Winds: variable direction winds at 8 MPH (7 knots; 3.6 m/s)
Visibility: 6 or more miles (10+ km)
Ceiling: 5000 feet AGL
Clouds: few clouds at 3000 feet AGL
broken clouds at 5000 feet AGL
Weather: no significant weather forecast for this period
Text: TEMPO 1812/1815 RA
Forecast period: 1200 to 1500 UTC 18 June 2018
Forecast type: TEMPORARY: The following changes expected for less than half the time period
Weather: RA  (rain)
Text: BECMG 1815/1818 24012KT
Forecast period: 1500 to 2100 UTC 18 June 2018
Forecast type: BECOMING: Conditions expected to become as follows by 1800 UTC 18 June 2018
Winds: from the WSW (240 degrees) at 14 MPH (12 knots; 6.2 m/s)
Visibility: 6 or more miles (10+ km)
Ceiling: 5000 feet AGL
Clouds: few clouds at 3000 feet AGL
broken clouds at 5000 feet AGL
Weather: no significant weather forecast for this period

 MAPA DO AEROPORTO

 INFORMAÇÕES DA PISTA
Pista 07 Tamanho da pista 6037 ft Largura da pista 148 ft
Elevação da pista 179 ft Ranhura da pista 197 ft Proa da pista 72
Pista 25 Tamanho da pista 6037 ft Largura da pista 148 ft
Elevação da pista 196 ft Ranhura da pista 263 ft Proa da pista 252

 FREQUÊNCIAS DO AEROPORTO
Tipo TWR Nome TWR Frequência 118.3 MHZ

 AUXÍLIOS DE NAVEGAÇÃO PRÓXIMOS AO AEROPORTO
Tipo VOR-DME Nome Kvernberget Frequência 113800 KHZ



Powered by Mercosul Lnhas Aereas